Airport View

Enter AWOS ICAO identifier for current METAR.

ex. KFNL

PASV 212355Z AUTO VRB05KT 10SM CLR 05/M02 A2961

22 Sep 2019 00:15

Phone: 907-731-9001

Other Area AWOS: PAER - PASL - PALJ - PAIL

TAF PAIL 212323Z 2200/2224 28010KT P6SM SKC TEMPO 2200/2204 28010G16KT FM220500 VRB05KT P6SM BKN040 FM222200 09013KT P6SM BKN040